Time;durP1;ratioP1;P1;durP2;ratioP2;P2;SDS_P1;SDS_P2;PMS_P1;PMS_P2;Temp;Humidity;BMP_temperature;BMP_pressure;BME280_temperature;BME280_humidity;BME280_pressure;Samples;Min_cycle;Max_cycle;Signal;HPM_P1;HPM_P2
2022/03/01 00:03:20;;;;;;;;;89.50;78.00;;;;;;;;2;288084092;288084092;-73
2022/03/01 00:11:35;;;;;;;;;;;;;;;;;;2;261077155;261077155;-73
2022/03/01 00:21:03;;;;;;;;;102.50;102.50;;;;;;;;2;288087402;288087402;-76
2022/03/01 00:29:18;;;;;;;;;151.50;145.50;;;;;;;;2;261075332;261075332;-76
2022/03/01 00:38:46;;;;;;;;;103.50;102.00;;;;;;;;2;288083591;288083591;-76
2022/03/01 00:47:01;;;;;;;;;127.50;122.50;;;;;;;;2;261076267;261076267;-75
2022/03/01 00:56:30;;;;;;;;;94.50;93.00;;;;;;;;2;288084513;288084513;-76
2022/03/01 01:04:46;;;;;;;;;92.00;88.50;;;;;;;;2;261077872;261077872;-76
2022/03/01 01:14:13;;;;;;;;;82.50;82.50;;;;;;;;2;288083773;288083773;-76
2022/03/01 01:22:41;;;;;;;;;103.00;102.00;;;;;;;;2;261076990;261076990;-76
2022/03/01 01:32:09;;;;;;;;;95.00;95.00;;;;;;;;2;288083671;288083671;-76
2022/03/01 01:40:25;;;;;;;;;79.00;78.50;;;;;;;;2;261075824;261075824;-76
2022/03/01 01:49:52;;;;;;;;;80.50;80.00;;;;;;;;2;288084472;288084472;-76
2022/03/01 01:58:08;;;;;;;;;85.50;69.00;;;;;;;;2;261077026;261077026;-75
2022/03/01 02:07:36;;;;;;;;;80.00;75.00;;;;;;;;2;288083582;288083582;-76
2022/03/01 02:15:52;;;;;;;;;88.00;79.00;;;;;;;;2;261080321;261080321;-76
2022/03/01 02:25:19;;;;;;;;;101.00;99.50;;;;;;;;2;288085754;288085754;-75
2022/03/01 02:33:35;;;;;;;;;69.50;60.00;;;;;;;;2;261079462;261079462;-76
2022/03/01 02:43:02;;;;;;;;;78.50;72.00;;;;;;;;2;288084315;288084315;-76
2022/03/01 02:51:18;;;;;;;;;76.50;68.50;;;;;;;;2;261077384;261077384;-75
2022/03/01 03:00:45;;;;;;;;;91.00;85.00;;;;;;;;2;288082571;288082571;-75
2022/03/01 03:09:01;;;;;;;;;82.50;80.00;;;;;;;;2;261077202;261077202;-76
2022/03/01 03:18:28;;;;;;;;;111.00;100.00;;;;;;;;2;288084427;288084427;-76
2022/03/01 03:26:44;;;;;;;;;81.50;78.00;;;;;;;;2;261078470;261078470;-76
2022/03/01 03:36:12;;;;;;;;;80.00;74.50;;;;;;;;2;288081285;288081285;-75
2022/03/01 03:44:27;;;;;;;;;90.00;85.00;;;;;;;;2;261075356;261075356;-75
2022/03/01 03:53:55;;;;;;;;;77.00;73.50;;;;;;;;2;288083955;288083955;-75
2022/03/01 04:02:10;;;;;;;;;85.00;85.00;;;;;;;;2;261076725;261076725;-75
2022/03/01 04:11:38;;;;;;;;;90.00;73.50;;;;;;;;2;288082506;288082506;-75
2022/03/01 04:19:53;;;;;;;;;70.50;63.50;;;;;;;;2;261078671;261078671;-75
2022/03/01 04:29:21;;;;;;;;;70.50;62.00;;;;;;;;2;288085391;288085391;-75
2022/03/01 04:37:37;;;;;;;;;116.00;112.50;;;;;;;;2;261075829;261075829;-75
2022/03/01 04:47:04;;;;;;;;;123.50;121.00;;;;;;;;2;288086359;288086359;-75
2022/03/01 04:55:20;;;;;;;;;111.00;103.50;;;;;;;;2;261074790;261074790;-75
2022/03/01 05:04:47;;;;;;;;;83.00;74.00;;;;;;;;2;288085289;288085289;-75
2022/03/01 05:13:03;;;;;;;;;95.50;86.50;;;;;;;;2;261075205;261075205;-75
2022/03/01 05:22:32;;;;;;;;;93.00;93.00;;;;;;;;2;288083771;288083771;-75
2022/03/01 05:30:47;;;;;;;;;85.50;76.50;;;;;;;;2;261079564;261079564;-75
2022/03/01 05:40:15;;;;;;;;;114.00;106.00;;;;;;;;2;288084519;288084519;-75
2022/03/01 05:48:31;;;;;;;;;69.50;62.50;;;;;;;;2;261077514;261077514;-75
2022/03/01 05:57:58;;;;;;;;;72.00;64.50;;;;;;;;2;288082055;288082055;-75
2022/03/01 06:06:14;;;;;;;;;67.50;55.50;;;;;;;;2;261072393;261072393;-75
2022/03/01 06:15:41;;;;;;;;;94.50;89.50;;;;;;;;2;288083456;288083456;-75
2022/03/01 06:23:57;;;;;;;;;81.00;68.50;;;;;;;;2;261074893;261074893;-75
2022/03/01 06:33:25;;;;;;;;;70.00;58.00;;;;;;;;2;288083749;288083749;-75
2022/03/01 06:41:41;;;;;;;;;108.00;108.00;;;;;;;;2;261075042;261075042;-75
2022/03/01 06:51:08;;;;;;;;;77.00;74.00;;;;;;;;2;288085216;288085216;-75
2022/03/01 06:59:26;;;;;;;;;77.50;73.00;;;;;;;;2;261075493;261075493;-76
2022/03/01 07:08:53;;;;;;;;;70.50;63.00;;;;;;;;2;288087411;288087411;-75
2022/03/01 07:17:09;;;;;;;;;80.50;80.00;;;;;;;;2;261075133;261075133;-76
2022/03/01 07:26:36;;;;;;;;;73.50;67.50;;;;;;;;2;288084247;288084247;-75
2022/03/01 07:34:52;;;;;;;;;69.50;55.00;;;;;;;;2;261076673;261076673;-75
2022/03/01 07:44:19;;;;;;;;;89.00;89.00;;;;;;;;2;288083403;288083403;-75
2022/03/01 07:52:35;;;;;;;;;74.00;69.00;;;;;;;;2;261079076;261079076;-75
2022/03/01 08:02:03;;;;;;;;;107.00;102.00;;;;;;;;2;288083992;288083992;-75
2022/03/01 08:10:19;;;;;;;;;56.50;48.00;;;;;;;;2;261077274;261077274;-75
2022/03/01 08:19:49;;;;;;;;;133.50;132.00;;;;;;;;2;288090608;288090608;-77
2022/03/01 08:28:05;;;;;;;;;131.00;131.00;;;;;;;;2;261077264;261077264;-76
2022/03/01 08:37:33;;;;;;;;;82.00;81.00;;;;;;;;2;288081618;288081618;-76
2022/03/01 08:45:49;;;;;;;;;84.50;84.50;;;;;;;;2;261078611;261078611;-76
2022/03/01 08:55:16;;;;;;;;;73.00;55.00;;;;;;;;2;288087503;288087503;-76
2022/03/01 09:03:33;;;;;;;;;86.50;77.50;;;;;;;;2;261078106;261078106;-76
2022/03/01 09:13:00;;;;;;;;;91.50;72.50;;;;;;;;2;288086335;288086335;-77
2022/03/01 09:21:16;;;;;;;;;80.00;76.00;;;;;;;;2;261075174;261075174;-77
2022/03/01 09:30:44;;;;;;;;;69.50;59.50;;;;;;;;2;288085217;288085217;-76
2022/03/01 09:38:59;;;;;;;;;74.00;66.00;;;;;;;;2;261077012;261077012;-77
2022/03/01 09:48:27;;;;;;;;;72.50;67.50;;;;;;;;2;288083402;288083402;-77
2022/03/01 09:56:43;;;;;;;;;76.00;66.00;;;;;;;;2;261075341;261075341;-77
2022/03/01 10:06:11;;;;;;;;;62.50;49.50;;;;;;;;2;288084687;288084687;-76
2022/03/01 10:14:28;;;;;;;;;92.00;89.00;;;;;;;;2;261080052;261080052;-76
2022/03/01 10:24:01;;;;;;;;;83.00;83.00;;;;;;;;2;288085214;288085214;-76
2022/03/01 10:32:16;;;;;;;;;103.50;88.00;;;;;;;;2;261079357;261079357;-76
2022/03/01 10:41:45;;;;;;;;;94.00;90.00;;;;;;;;2;288083974;288083974;-76
2022/03/01 10:50:06;;;;;;;;;89.50;88.50;;;;;;;;2;261075104;261075104;-76
2022/03/01 10:59:35;;;;;;;;;89.50;78.00;;;;;;;;2;288084191;288084191;-77
2022/03/01 11:07:52;;;;;;;;;84.50;73.00;;;;;;;;2;261078447;261078447;-77
2022/03/01 11:17:24;;;;;;;;;77.00;73.50;;;;;;;;2;288083622;288083622;-77
2022/03/01 11:25:41;;;;;;;;;73.50;68.00;;;;;;;;2;261078685;261078685;-77
2022/03/01 11:35:22;;;;;;;;;127.00;127.00;;;;;;;;2;288084150;288084150;-77
2022/03/01 11:43:38;;;;;;;;;0.00;0.00;;;;;;;;2;261076584;261076584;-75
2022/03/01 11:53:07;;;;;;;;;0.00;0.00;;;;;;;;2;288085370;288085370;-71
2022/03/01 12:01:23;;;;;;;;;0.00;0.00;;;;;;;;2;261078144;261078144;-71
2022/03/01 12:11:09;;;;;;;;;0.00;0.00;;;;;;;;2;288082081;288082081;-71
2022/03/01 12:19:28;;;;;;;;;0.00;0.00;;;;;;;;2;261079736;261079736;-71
2022/03/01 12:28:57;;;;;;;;;9.50;9.50;;;;;;;;2;288082163;288082163;-75
2022/03/01 12:37:18;;;;;;;;;0.00;0.00;;;;;;;;2;261078710;261078710;-74
2022/03/01 12:46:46;;;;;;;;;0.00;0.00;;;;;;;;2;288083201;288083201;-75
2022/03/01 12:55:04;;;;;;;;;0.00;0.00;;;;;;;;2;261078121;261078121;-75
2022/03/01 13:04:32;;;;;;;;;0.00;0.00;;;;;;;;2;288086555;288086555;-77
2022/03/01 13:12:51;;;;;;;;;0.00;0.00;;;;;;;;2;261079672;261079672;-77
2022/03/01 13:22:19;;;;;;;;;0.00;0.00;;;;;;;;2;288084364;288084364;-77
2022/03/01 13:30:34;;;;;;;;;0.00;0.00;;;;;;;;2;261079174;261079174;-77
2022/03/01 13:40:02;;;;;;;;;0.00;0.00;;;;;;;;2;288083883;288083883;-77
2022/03/01 13:48:18;;;;;;;;;0.00;0.00;;;;;;;;2;261077311;261077311;-77
2022/03/01 13:57:50;;;;;;;;;0.00;0.00;;;;;;;;2;288087286;288087286;-77
2022/03/01 14:06:07;;;;;;;;;0.00;0.00;;;;;;;;2;261076295;261076295;-78
2022/03/01 14:15:36;;;;;;;;;0.00;0.00;;;;;;;;2;288083644;288083644;-78
2022/03/01 14:23:52;;;;;;;;;0.00;0.00;;;;;;;;2;261077713;261077713;-78
2022/03/01 14:33:20;;;;;;;;;0.00;0.00;;;;;;;;2;288084917;288084917;-77
2022/03/01 14:41:36;;;;;;;;;0.00;0.00;;;;;;;;2;261075300;261075300;-78
2022/03/01 14:51:03;;;;;;;;;0.00;0.00;;;;;;;;2;288083930;288083930;-76
2022/03/01 14:59:19;;;;;;;;;0.00;0.00;;;;;;;;2;261075859;261075859;-76
2022/03/01 15:08:46;;;;;;;;;34.00;28.50;;;;;;;;2;288082311;288082311;-76
2022/03/01 15:17:02;;;;;;;;;0.00;0.00;;;;;;;;2;261077499;261077499;-76
2022/03/01 15:26:30;;;;;;;;;0.00;0.00;;;;;;;;2;288084560;288084560;-76
2022/03/01 15:34:45;;;;;;;;;0.00;0.00;;;;;;;;2;261077052;261077052;-76
2022/03/01 15:44:14;;;;;;;;;31.00;25.50;;;;;;;;2;288080863;288080863;-76
2022/03/01 15:52:29;;;;;;;;;0.00;0.00;;;;;;;;2;261078319;261078319;-76
2022/03/01 16:01:57;;;;;;;;;0.00;0.00;;;;;;;;2;288084172;288084172;-76
2022/03/01 16:10:12;;;;;;;;;7.50;7.50;;;;;;;;2;261078514;261078514;-76
2022/03/01 16:19:40;;;;;;;;;8.50;8.50;;;;;;;;2;288084869;288084869;-76
2022/03/01 16:27:55;;;;;;;;;41.00;38.00;;;;;;;;2;261077616;261077616;-76
2022/03/01 16:37:23;;;;;;;;;35.50;31.00;;;;;;;;2;288084848;288084848;-76
2022/03/01 16:48:58;;;;;;;;;37.50;34.50;;;;;;;;2;261077799;261077799;-76
2022/03/01 16:58:26;;;;;;;;;121.00;121.00;;;;;;;;2;288084148;288084148;-76
2022/03/01 17:06:41;;;;;;;;;101.00;100.00;;;;;;;;2;261077404;261077404;-76
2022/03/01 17:16:09;;;;;;;;;62.50;52.00;;;;;;;;2;288086383;288086383;-76
2022/03/01 17:24:25;;;;;;;;;62.50;45.50;;;;;;;;2;261078142;261078142;-76
2022/03/01 17:33:52;;;;;;;;;77.50;65.50;;;;;;;;2;288086270;288086270;-76
2022/03/01 17:42:08;;;;;;;;;63.50;55.50;;;;;;;;2;261080084;261080084;-75
2022/03/01 17:51:36;;;;;;;;;102.50;102.50;;;;;;;;2;288087156;288087156;-77
2022/03/01 17:59:51;;;;;;;;;81.00;79.50;;;;;;;;2;261078407;261078407;-77
2022/03/01 18:09:19;;;;;;;;;69.00;59.00;;;;;;;;2;288085679;288085679;-77
2022/03/01 18:17:35;;;;;;;;;61.50;49.00;;;;;;;;2;261078551;261078551;-77
2022/03/01 18:27:03;;;;;;;;;79.50;77.50;;;;;;;;2;288096988;288096988;-76
2022/03/01 18:35:21;;;;;;;;;74.00;65.00;;;;;;;;2;261076070;261076070;-76
2022/03/01 18:44:50;;;;;;;;;63.00;47.50;;;;;;;;2;288085570;288085570;-76
2022/03/01 18:53:07;;;;;;;;;63.50;50.50;;;;;;;;2;261077996;261077996;-75
2022/03/01 19:02:35;;;;;;;;;61.50;52.00;;;;;;;;2;288085181;288085181;-76
2022/03/01 19:10:50;;;;;;;;;59.50;51.50;;;;;;;;2;261075174;261075174;-76
2022/03/01 19:20:18;;;;;;;;;75.50;70.00;;;;;;;;2;288084969;288084969;-76
2022/03/01 19:28:33;;;;;;;;;64.50;57.00;;;;;;;;2;261076856;261076856;-76
2022/03/01 19:38:02;;;;;;;;;76.50;74.00;;;;;;;;2;288084121;288084121;-76
2022/03/01 19:46:18;;;;;;;;;58.00;49.00;;;;;;;;2;261078406;261078406;-76
2022/03/01 19:55:46;;;;;;;;;75.50;70.00;;;;;;;;2;288083306;288083306;-76
2022/03/01 20:04:01;;;;;;;;;92.00;83.50;;;;;;;;2;261078845;261078845;-76
2022/03/01 20:13:29;;;;;;;;;67.00;55.00;;;;;;;;2;288087728;288087728;-76
2022/03/01 20:21:44;;;;;;;;;98.50;90.50;;;;;;;;2;261078120;261078120;-76
2022/03/01 20:31:12;;;;;;;;;68.50;52.50;;;;;;;;2;288084188;288084188;-76
2022/03/01 20:39:28;;;;;;;;;65.00;57.50;;;;;;;;2;261076113;261076113;-76
2022/03/01 20:48:55;;;;;;;;;97.50;79.00;;;;;;;;2;288083275;288083275;-75
2022/03/01 20:57:11;;;;;;;;;82.00;79.00;;;;;;;;2;261079747;261079747;-76
2022/03/01 21:06:38;;;;;;;;;87.00;73.50;;;;;;;;2;288083258;288083258;-75
2022/03/01 21:14:54;;;;;;;;;101.00;91.50;;;;;;;;2;261078966;261078966;-75
2022/03/01 21:24:21;;;;;;;;;83.50;78.00;;;;;;;;2;288084449;288084449;-75
2022/03/01 21:32:37;;;;;;;;;107.50;96.50;;;;;;;;2;261077738;261077738;-75
2022/03/01 21:42:05;;;;;;;;;95.00;95.00;;;;;;;;2;288084815;288084815;-75
2022/03/01 21:50:20;;;;;;;;;95.00;82.00;;;;;;;;2;261077453;261077453;-74
2022/03/01 21:59:48;;;;;;;;;74.50;68.50;;;;;;;;2;288088592;288088592;-74
2022/03/01 22:08:03;;;;;;;;;128.50;126.50;;;;;;;;2;261077085;261077085;-74
2022/03/01 22:17:31;;;;;;;;;84.00;83.50;;;;;;;;2;288085288;288085288;-74
2022/03/01 22:25:47;;;;;;;;;69.00;57.50;;;;;;;;2;261075985;261075985;-76
2022/03/01 22:35:15;;;;;;;;;77.50;71.00;;;;;;;;2;288085386;288085386;-75
2022/03/01 22:43:30;;;;;;;;;66.00;56.50;;;;;;;;2;261076424;261076424;-75
2022/03/01 22:52:59;;;;;;;;;60.50;50.50;;;;;;;;2;288083328;288083328;-75
2022/03/01 23:01:17;;;;;;;;;65.00;44.00;;;;;;;;2;261076013;261076013;-76
2022/03/01 23:10:44;;;;;;;;;49.00;40.00;;;;;;;;2;288088400;288088400;-75
2022/03/01 23:19:00;;;;;;;;;78.50;63.50;;;;;;;;2;261080519;261080519;-75
2022/03/01 23:28:27;;;;;;;;;53.00;45.00;;;;;;;;2;288089056;288089056;-75
2022/03/01 23:36:43;;;;;;;;;62.00;46.00;;;;;;;;2;261076868;261076868;-75
2022/03/01 23:46:10;;;;;;;;;67.00;54.50;;;;;;;;2;288082984;288082984;-76
2022/03/01 23:54:26;;;;;;;;;53.00;45.00;;;;;;;;2;261076921;261076921;-77
